sensor_id;sensor_type;location;lat;lon;timestamp;P1;durP1;ratioP1;P2;durP2;ratioP2
30617;SDS011;17384;51.214;9.202;2022-09-03T00:02:34;7.40;;;1.60;;
30617;SDS011;17384;51.214;9.202;2022-09-03T00:05:05;4.63;;;1.50;;
30617;SDS011;17384;51.214;9.202;2022-09-03T00:07:42;5.53;;;1.50;;
30617;SDS011;17384;51.214;9.202;2022-09-03T00:10:12;1.27;;;1.10;;
30617;SDS011;17384;51.214;9.202;2022-09-03T00:12:39;1.17;;;1.08;;
30617;SDS011;17384;51.214;9.202;2022-09-03T00:15:14;4.30;;;1.77;;
30617;SDS011;17384;51.214;9.202;2022-09-03T00:17:45;1.85;;;1.17;;
30617;SDS011;17384;51.214;9.202;2022-09-03T00:20:14;2.30;;;1.45;;
30617;SDS011;17384;51.214;9.202;2022-09-03T00:22:46;4.30;;;1.20;;
30617;SDS011;17384;51.214;9.202;2022-09-03T00:25:14;1.70;;;1.60;;
30617;SDS011;17384;51.214;9.202;2022-09-03T00:27:41;1.73;;;1.35;;
30617;SDS011;17384;51.214;9.202;2022-09-03T00:30:11;4.03;;;1.40;;
30617;SDS011;17384;51.214;9.202;2022-09-03T00:32:45;3.22;;;1.40;;
30617;SDS011;17384;51.214;9.202;2022-09-03T00:35:17;1.83;;;1.38;;
30617;SDS011;17384;51.214;9.202;2022-09-03T00:37:44;2.55;;;1.60;;
30617;SDS011;17384;51.214;9.202;2022-09-03T00:40:14;3.20;;;1.45;;
30617;SDS011;17384;51.214;9.202;2022-09-03T00:42:57;2.47;;;1.80;;
30617;SDS011;17384;51.214;9.202;2022-09-03T00:51:02;1.55;;;1.45;;
30617;SDS011;17384;51.214;9.202;2022-09-03T00:58:50;3.38;;;1.73;;
30617;SDS011;17384;51.214;9.202;2022-09-03T01:01:21;1.95;;;1.60;;
30617;SDS011;17384;51.214;9.202;2022-09-03T01:03:53;2.95;;;1.90;;
30617;SDS011;17384;51.214;9.202;2022-09-03T01:09:08;6.78;;;1.50;;
30617;SDS011;17384;51.214;9.202;2022-09-03T01:16:46;2.42;;;2.08;;
30617;SDS011;17384;51.214;9.202;2022-09-03T01:27:29;4.13;;;1.90;;
30617;SDS011;17384;51.214;9.202;2022-09-03T01:30:06;2.28;;;1.90;;
30617;SDS011;17384;51.214;9.202;2022-09-03T01:32:39;4.25;;;2.08;;
30617;SDS011;17384;51.214;9.202;2022-09-03T01:35:15;2.15;;;1.90;;
30617;SDS011;17384;51.214;9.202;2022-09-03T01:45:31;4.47;;;2.20;;
30617;SDS011;17384;51.214;9.202;2022-09-03T01:50:45;2.10;;;1.70;;
30617;SDS011;17384;51.214;9.202;2022-09-03T01:53:24;1.88;;;1.77;;
30617;SDS011;17384;51.214;9.202;2022-09-03T01:56:07;3.78;;;2.00;;
30617;SDS011;17384;51.214;9.202;2022-09-03T01:58:40;2.28;;;2.05;;
30617;SDS011;17384;51.214;9.202;2022-09-03T02:01:16;2.17;;;1.97;;
30617;SDS011;17384;51.214;9.202;2022-09-03T02:03:44;9.88;;;1.83;;
30617;SDS011;17384;51.214;9.202;2022-09-03T02:06:11;3.20;;;1.90;;
30617;SDS011;17384;51.214;9.202;2022-09-03T02:08:37;4.03;;;1.90;;
30617;SDS011;17384;51.214;9.202;2022-09-03T02:11:03;2.38;;;1.92;;
30617;SDS011;17384;51.214;9.202;2022-09-03T02:13:31;2.88;;;1.90;;
30617;SDS011;17384;51.214;9.202;2022-09-03T02:15:59;2.00;;;1.80;;
30617;SDS011;17384;51.214;9.202;2022-09-03T02:18:27;3.10;;;1.98;;
30617;SDS011;17384;51.214;9.202;2022-09-03T02:20:55;3.25;;;2.00;;
30617;SDS011;17384;51.214;9.202;2022-09-03T02:23:21;3.17;;;2.13;;
30617;SDS011;17384;51.214;9.202;2022-09-03T02:25:48;3.22;;;2.35;;
30617;SDS011;17384;51.214;9.202;2022-09-03T02:28:15;2.50;;;2.25;;
30617;SDS011;17384;51.214;9.202;2022-09-03T02:30:41;2.85;;;2.38;;
30617;SDS011;17384;51.214;9.202;2022-09-03T02:33:06;1.92;;;1.83;;
30617;SDS011;17384;51.214;9.202;2022-09-03T02:35:31;2.45;;;2.10;;
30617;SDS011;17384;51.214;9.202;2022-09-03T02:38:07;3.90;;;2.00;;
30617;SDS011;17384;51.214;9.202;2022-09-03T02:40:32;2.20;;;2.00;;
30617;SDS011;17384;51.214;9.202;2022-09-03T02:42:59;6.43;;;2.17;;
30617;SDS011;17384;51.214;9.202;2022-09-03T02:45:26;2.40;;;2.20;;
30617;SDS011;17384;51.214;9.202;2022-09-03T02:47:55;5.60;;;2.53;;
30617;SDS011;17384;51.214;9.202;2022-09-03T02:50:22;2.30;;;2.10;;
30617;SDS011;17384;51.214;9.202;2022-09-03T02:52:48;2.58;;;2.22;;
30617;SDS011;17384;51.214;9.202;2022-09-03T02:55:14;3.45;;;2.25;;
30617;SDS011;17384;51.214;9.202;2022-09-03T02:57:39;2.70;;;2.10;;
30617;SDS011;17384;51.214;9.202;2022-09-03T03:00:05;3.38;;;2.00;;
30617;SDS011;17384;51.214;9.202;2022-09-03T03:02:30;6.28;;;2.30;;
30617;SDS011;17384;51.214;9.202;2022-09-03T03:04:55;4.20;;;2.35;;
30617;SDS011;17384;51.214;9.202;2022-09-03T03:07:21;2.60;;;2.28;;
30617;SDS011;17384;51.214;9.202;2022-09-03T03:09:46;2.30;;;2.10;;
30617;SDS011;17384;51.214;9.202;2022-09-03T03:12:11;4.93;;;2.30;;
30617;SDS011;17384;51.214;9.202;2022-09-03T03:14:37;2.83;;;2.05;;
30617;SDS011;17384;51.214;9.202;2022-09-03T03:17:02;2.50;;;2.30;;
30617;SDS011;17384;51.214;9.202;2022-09-03T03:19:27;2.42;;;2.10;;
30617;SDS011;17384;51.214;9.202;2022-09-03T03:21:53;3.05;;;2.08;;
30617;SDS011;17384;51.214;9.202;2022-09-03T03:24:18;8.00;;;2.70;;
30617;SDS011;17384;51.214;9.202;2022-09-03T03:26:43;2.63;;;2.42;;
30617;SDS011;17384;51.214;9.202;2022-09-03T03:29:13;2.83;;;2.15;;
30617;SDS011;17384;51.214;9.202;2022-09-03T03:31:38;2.03;;;1.92;;
30617;SDS011;17384;51.214;9.202;2022-09-03T03:34:04;6.40;;;2.55;;
30617;SDS011;17384;51.214;9.202;2022-09-03T03:36:30;2.80;;;2.40;;
30617;SDS011;17384;51.214;9.202;2022-09-03T03:38:56;2.67;;;2.47;;
30617;SDS011;17384;51.214;9.202;2022-09-03T03:41:23;2.55;;;2.35;;
30617;SDS011;17384;51.214;9.202;2022-09-03T03:43:52;4.32;;;2.50;;
30617;SDS011;17384;51.214;9.202;2022-09-03T03:46:17;2.65;;;2.42;;
30617;SDS011;17384;51.214;9.202;2022-09-03T03:48:43;3.17;;;2.45;;
30617;SDS011;17384;51.214;9.202;2022-09-03T03:51:11;3.10;;;2.55;;
30617;SDS011;17384;51.214;9.202;2022-09-03T03:53:37;5.85;;;2.67;;
30617;SDS011;17384;51.214;9.202;2022-09-03T03:56:03;4.72;;;2.65;;
30617;SDS011;17384;51.214;9.202;2022-09-03T03:58:29;2.78;;;2.38;;
30617;SDS011;17384;51.214;9.202;2022-09-03T04:01:02;6.90;;;2.63;;
30617;SDS011;17384;51.214;9.202;2022-09-03T04:03:28;2.92;;;2.63;;
30617;SDS011;17384;51.214;9.202;2022-09-03T04:05:54;7.90;;;2.65;;
30617;SDS011;17384;51.214;9.202;2022-09-03T04:08:20;3.08;;;2.88;;
30617;SDS011;17384;51.214;9.202;2022-09-03T04:10:45;5.15;;;3.55;;
30617;SDS011;17384;51.214;9.202;2022-09-03T04:13:11;3.47;;;2.67;;
30617;SDS011;17384;51.214;9.202;2022-09-03T04:15:36;3.35;;;2.92;;
30617;SDS011;17384;51.214;9.202;2022-09-03T04:18:02;11.15;;;2.55;;
30617;SDS011;17384;51.214;9.202;2022-09-03T04:20:27;7.38;;;2.63;;
30617;SDS011;17384;51.214;9.202;2022-09-03T04:22:53;3.17;;;2.85;;
30617;SDS011;17384;51.214;9.202;2022-09-03T04:25:18;3.17;;;2.35;;
30617;SDS011;17384;51.214;9.202;2022-09-03T04:27:43;4.10;;;2.50;;
30617;SDS011;17384;51.214;9.202;2022-09-03T04:30:09;3.10;;;2.80;;
30617;SDS011;17384;51.214;9.202;2022-09-03T04:32:34;7.45;;;3.25;;
30617;SDS011;17384;51.214;9.202;2022-09-03T04:35:21;3.08;;;2.83;;
30617;SDS011;17384;51.214;9.202;2022-09-03T04:37:47;6.57;;;3.15;;
30617;SDS011;17384;51.214;9.202;2022-09-03T04:40:13;2.53;;;2.33;;
30617;SDS011;17384;51.214;9.202;2022-09-03T04:42:38;3.58;;;2.63;;
30617;SDS011;17384;51.214;9.202;2022-09-03T04:45:04;3.95;;;2.90;;
30617;SDS011;17384;51.214;9.202;2022-09-03T04:47:30;2.72;;;2.50;;
30617;SDS011;17384;51.214;9.202;2022-09-03T04:49:55;3.63;;;3.08;;
30617;SDS011;17384;51.214;9.202;2022-09-03T04:52:21;3.20;;;3.00;;
30617;SDS011;17384;51.214;9.202;2022-09-03T04:54:46;3.35;;;2.80;;
30617;SDS011;17384;51.214;9.202;2022-09-03T04:57:12;4.05;;;2.85;;
30617;SDS011;17384;51.214;9.202;2022-09-03T04:59:37;4.40;;;2.67;;
30617;SDS011;17384;51.214;9.202;2022-09-03T05:02:03;5.53;;;2.65;;
30617;SDS011;17384;51.214;9.202;2022-09-03T05:04:31;2.78;;;2.58;;
30617;SDS011;17384;51.214;9.202;2022-09-03T05:06:57;2.70;;;2.50;;
30617;SDS011;17384;51.214;9.202;2022-09-03T05:09:22;3.50;;;3.20;;
30617;SDS011;17384;51.214;9.202;2022-09-03T05:11:47;4.13;;;2.92;;
30617;SDS011;17384;51.214;9.202;2022-09-03T05:14:13;5.15;;;2.97;;
30617;SDS011;17384;51.214;9.202;2022-09-03T05:16:38;3.33;;;3.03;;
30617;SDS011;17384;51.214;9.202;2022-09-03T05:19:04;6.78;;;3.03;;
30617;SDS011;17384;51.214;9.202;2022-09-03T05:21:32;3.55;;;2.80;;
30617;SDS011;17384;51.214;9.202;2022-09-03T05:24:00;2.97;;;2.70;;
30617;SDS011;17384;51.214;9.202;2022-09-03T05:26:26;3.60;;;2.50;;
30617;SDS011;17384;51.214;9.202;2022-09-03T05:28:53;3.80;;;2.90;;
30617;SDS011;17384;51.214;9.202;2022-09-03T05:31:19;4.13;;;2.90;;
30617;SDS011;17384;51.214;9.202;2022-09-03T05:33:48;3.85;;;2.88;;
30617;SDS011;17384;51.214;9.202;2022-09-03T05:36:15;6.10;;;2.40;;
30617;SDS011;17384;51.214;9.202;2022-09-03T05:38:41;4.53;;;2.85;;
30617;SDS011;17384;51.214;9.202;2022-09-03T05:41:08;3.75;;;2.72;;
30617;SDS011;17384;51.214;9.202;2022-09-03T05:43:34;3.13;;;2.75;;
30617;SDS011;17384;51.214;9.202;2022-09-03T05:46:06;7.00;;;2.50;;
30617;SDS011;17384;51.214;9.202;2022-09-03T05:48:32;3.65;;;2.78;;
30617;SDS011;17384;51.214;9.202;2022-09-03T05:50:58;5.63;;;2.40;;
30617;SDS011;17384;51.214;9.202;2022-09-03T05:53:25;3.55;;;2.25;;
30617;SDS011;17384;51.214;9.202;2022-09-03T05:55:54;2.30;;;2.10;;
30617;SDS011;17384;51.214;9.202;2022-09-03T05:58:19;3.05;;;2.70;;
30617;SDS011;17384;51.214;9.202;2022-09-03T06:00:44;6.38;;;2.75;;
30617;SDS011;17384;51.214;9.202;2022-09-03T06:03:10;5.13;;;3.40;;
30617;SDS011;17384;51.214;9.202;2022-09-03T06:05:35;3.70;;;3.40;;
30617;SDS011;17384;51.214;9.202;2022-09-03T06:08:01;5.40;;;3.25;;
30617;SDS011;17384;51.214;9.202;2022-09-03T06:10:26;3.60;;;2.67;;
30617;SDS011;17384;51.214;9.202;2022-09-03T06:12:51;4.60;;;2.33;;
30617;SDS011;17384;51.214;9.202;2022-09-03T06:15:17;3.55;;;2.67;;
30617;SDS011;17384;51.214;9.202;2022-09-03T06:17:45;2.38;;;2.17;;
30617;SDS011;17384;51.214;9.202;2022-09-03T06:20:14;3.53;;;3.20;;
30617;SDS011;17384;51.214;9.202;2022-09-03T06:22:51;8.73;;;3.25;;
30617;SDS011;17384;51.214;9.202;2022-09-03T06:25:17;2.45;;;2.08;;
30617;SDS011;17384;51.214;9.202;2022-09-03T06:27:43;1.90;;;1.70;;
30617;SDS011;17384;51.214;9.202;2022-09-03T06:30:08;3.15;;;2.30;;
30617;SDS011;17384;51.214;9.202;2022-09-03T06:32:42;3.25;;;2.30;;
30617;SDS011;17384;51.214;9.202;2022-09-03T06:35:07;5.57;;;2.20;;
30617;SDS011;17384;51.214;9.202;2022-09-03T06:37:37;6.80;;;2.30;;
30617;SDS011;17384;51.214;9.202;2022-09-03T06:40:03;3.00;;;2.00;;
30617;SDS011;17384;51.214;9.202;2022-09-03T06:42:28;3.70;;;2.08;;
30617;SDS011;17384;51.214;9.202;2022-09-03T06:44:53;4.35;;;2.05;;
30617;SDS011;17384;51.214;9.202;2022-09-03T06:47:19;2.55;;;1.67;;
30617;SDS011;17384;51.214;9.202;2022-09-03T06:49:44;5.82;;;1.60;;
30617;SDS011;17384;51.214;9.202;2022-09-03T06:52:10;4.22;;;1.60;;
30617;SDS011;17384;51.214;9.202;2022-09-03T06:54:35;1.85;;;1.50;;
30617;SDS011;17384;51.214;9.202;2022-09-03T06:57:03;2.72;;;1.60;;
30617;SDS011;17384;51.214;9.202;2022-09-03T06:59:29;4.30;;;1.45;;
30617;SDS011;17384;51.214;9.202;2022-09-03T07:01:54;6.15;;;1.52;;
30617;SDS011;17384;51.214;9.202;2022-09-03T07:04:19;2.17;;;1.27;;
30617;SDS011;17384;51.214;9.202;2022-09-03T07:06:47;13.02;;;1.83;;
30617;SDS011;17384;51.214;9.202;2022-09-03T07:09:12;2.45;;;1.63;;
30617;SDS011;17384;51.214;9.202;2022-09-03T07:11:39;1.67;;;1.23;;
30617;SDS011;17384;51.214;9.202;2022-09-03T07:14:10;4.30;;;1.73;;
30617;SDS011;17384;51.214;9.202;2022-09-03T07:16:36;22.58;;;1.60;;
30617;SDS011;17384;51.214;9.202;2022-09-03T07:19:01;7.00;;;1.42;;
30617;SDS011;17384;51.214;9.202;2022-09-03T07:21:29;1.63;;;1.52;;
30617;SDS011;17384;51.214;9.202;2022-09-03T07:23:54;2.60;;;1.70;;
30617;SDS011;17384;51.214;9.202;2022-09-03T07:26:21;4.85;;;1.75;;
30617;SDS011;17384;51.214;9.202;2022-09-03T07:28:47;1.80;;;1.38;;
30617;SDS011;17384;51.214;9.202;2022-09-03T07:31:22;2.88;;;1.42;;
30617;SDS011;17384;51.214;9.202;2022-09-03T07:33:50;3.17;;;1.48;;
30617;SDS011;17384;51.214;9.202;2022-09-03T07:36:15;3.13;;;1.30;;
30617;SDS011;17384;51.214;9.202;2022-09-03T07:38:41;4.13;;;1.35;;
30617;SDS011;17384;51.214;9.202;2022-09-03T07:43:40;4.53;;;1.57;;
30617;SDS011;17384;51.214;9.202;2022-09-03T07:46:11;2.35;;;1.42;;
30617;SDS011;17384;51.214;9.202;2022-09-03T07:48:40;4.38;;;1.35;;
30617;SDS011;17384;51.214;9.202;2022-09-03T07:51:06;2.38;;;1.50;;
30617;SDS011;17384;51.214;9.202;2022-09-03T07:53:31;1.58;;;1.20;;
30617;SDS011;17384;51.214;9.202;2022-09-03T07:56:04;3.05;;;1.55;;
30617;SDS011;17384;51.214;9.202;2022-09-03T07:58:30;4.68;;;1.50;;
30617;SDS011;17384;51.214;9.202;2022-09-03T08:00:56;5.78;;;1.23;;
30617;SDS011;17384;51.214;9.202;2022-09-03T08:03:22;1.58;;;1.40;;
30617;SDS011;17384;51.214;9.202;2022-09-03T08:05:47;3.33;;;1.37;;
30617;SDS011;17384;51.214;9.202;2022-09-03T08:08:12;3.90;;;1.40;;
30617;SDS011;17384;51.214;9.202;2022-09-03T08:10:39;2.65;;;1.50;;
30617;SDS011;17384;51.214;9.202;2022-09-03T08:13:04;1.45;;;1.15;;
30617;SDS011;17384;51.214;9.202;2022-09-03T08:15:31;7.22;;;1.73;;
30617;SDS011;17384;51.214;9.202;2022-09-03T08:17:56;2.30;;;1.48;;
30617;SDS011;17384;51.214;9.202;2022-09-03T08:20:23;2.30;;;1.20;;
30617;SDS011;17384;51.214;9.202;2022-09-03T08:22:52;2.10;;;1.30;;
30617;SDS011;17384;51.214;9.202;2022-09-03T08:25:17;4.03;;;1.55;;
30617;SDS011;17384;51.214;9.202;2022-09-03T08:27:43;6.20;;;1.63;;
30617;SDS011;17384;51.214;9.202;2022-09-03T08:30:08;2.30;;;1.30;;
30617;SDS011;17384;51.214;9.202;2022-09-03T08:32:37;1.45;;;1.10;;
30617;SDS011;17384;51.214;9.202;2022-09-03T08:35:04;4.05;;;1.40;;
30617;SDS011;17384;51.214;9.202;2022-09-03T08:37:32;3.60;;;1.20;;
30617;SDS011;17384;51.214;9.202;2022-09-03T08:39:58;10.02;;;1.45;;
30617;SDS011;17384;51.214;9.202;2022-09-03T08:42:48;4.30;;;1.38;;
30617;SDS011;17384;51.214;9.202;2022-09-03T08:45:12;5.50;;;1.27;;
30617;SDS011;17384;51.214;9.202;2022-09-03T08:47:47;4.35;;;1.25;;
30617;SDS011;17384;51.214;9.202;2022-09-03T08:55:49;1.48;;;1.08;;
30617;SDS011;17384;51.214;9.202;2022-09-03T08:58:16;2.47;;;1.40;;
30617;SDS011;17384;51.214;9.202;2022-09-03T09:00:49;2.25;;;1.45;;
30617;SDS011;17384;51.214;9.202;2022-09-03T09:08:17;4.18;;;1.40;;
30617;SDS011;17384;51.214;9.202;2022-09-03T09:11:07;3.50;;;1.20;;
30617;SDS011;17384;51.214;9.202;2022-09-03T09:13:33;3.20;;;1.50;;
30617;SDS011;17384;51.214;9.202;2022-09-03T09:18:46;2.13;;;1.25;;
30617;SDS011;17384;51.214;9.202;2022-09-03T09:21:16;2.03;;;1.25;;
30617;SDS011;17384;51.214;9.202;2022-09-03T09:23:43;2.15;;;1.42;;
30617;SDS011;17384;51.214;9.202;2022-09-03T09:26:10;4.25;;;1.25;;
30617;SDS011;17384;51.214;9.202;2022-09-03T09:28:37;1.75;;;1.10;;
30617;SDS011;17384;51.214;9.202;2022-09-03T09:31:04;2.63;;;1.45;;
30617;SDS011;17384;51.214;9.202;2022-09-03T09:33:31;4.18;;;1.30;;
30617;SDS011;17384;51.214;9.202;2022-09-03T09:36:02;3.47;;;1.27;;
30617;SDS011;17384;51.214;9.202;2022-09-03T09:38:32;4.60;;;1.70;;
30617;SDS011;17384;51.214;9.202;2022-09-03T09:43:41;3.28;;;1.67;;
30617;SDS011;17384;51.214;9.202;2022-09-03T09:46:09;4.20;;;1.30;;
30617;SDS011;17384;51.214;9.202;2022-09-03T09:48:48;4.95;;;1.42;;
30617;SDS011;17384;51.214;9.202;2022-09-03T09:51:22;1.75;;;1.38;;
30617;SDS011;17384;51.214;9.202;2022-09-03T09:53:48;5.82;;;1.58;;
30617;SDS011;17384;51.214;9.202;2022-09-03T09:56:24;2.65;;;0.98;;
30617;SDS011;17384;51.214;9.202;2022-09-03T09:59:00;2.95;;;1.33;;
30617;SDS011;17384;51.214;9.202;2022-09-03T10:01:42;4.00;;;1.25;;
30617;SDS011;17384;51.214;9.202;2022-09-03T10:04:12;4.55;;;1.80;;
30617;SDS011;17384;51.214;9.202;2022-09-03T10:06:52;3.70;;;1.40;;
30617;SDS011;17384;51.214;9.202;2022-09-03T10:09:21;3.30;;;1.40;;
30617;SDS011;17384;51.214;9.202;2022-09-03T10:14:26;5.80;;;1.45;;
30617;SDS011;17384;51.214;9.202;2022-09-03T10:17:11;3.00;;;1.48;;
30617;SDS011;17384;51.214;9.202;2022-09-03T10:22:42;1.60;;;1.42;;
30617;SDS011;17384;51.214;9.202;2022-09-03T10:25:11;1.70;;;1.33;;
30617;SDS011;17384;51.214;9.202;2022-09-03T10:27:49;3.70;;;1.02;;
30617;SDS011;17384;51.214;9.202;2022-09-03T10:30:21;2.70;;;1.08;;
30617;SDS011;17384;51.214;9.202;2022-09-03T10:33:00;1.98;;;0.95;;
30617;SDS011;17384;51.214;9.202;2022-09-03T10:35:30;3.83;;;1.33;;
30617;SDS011;17384;51.214;9.202;2022-09-03T10:44:33;4.40;;;1.38;;
30617;SDS011;17384;51.214;9.202;2022-09-03T10:52:11;5.25;;;1.27;;
30617;SDS011;17384;51.214;9.202;2022-09-03T10:55:02;4.50;;;1.25;;
30617;SDS011;17384;51.214;9.202;2022-09-03T10:57:39;2.50;;;1.20;;
30617;SDS011;17384;51.214;9.202;2022-09-03T11:00:09;1.77;;;1.33;;
30617;SDS011;17384;51.214;9.202;2022-09-03T11:08:13;3.55;;;1.10;;
30617;SDS011;17384;51.214;9.202;2022-09-03T11:10:44;4.22;;;1.20;;
30617;SDS011;17384;51.214;9.202;2022-09-03T11:18:39;2.38;;;1.30;;
30617;SDS011;17384;51.214;9.202;2022-09-03T11:21:06;4.95;;;1.30;;
30617;SDS011;17384;51.214;9.202;2022-09-03T11:23:35;9.27;;;1.27;;
30617;SDS011;17384;51.214;9.202;2022-09-03T11:26:07;1.23;;;0.90;;
30617;SDS011;17384;51.214;9.202;2022-09-03T11:33:31;3.23;;;1.37;;
30617;SDS011;17384;51.214;9.202;2022-09-03T11:35:58;5.35;;;1.77;;
30617;SDS011;17384;51.214;9.202;2022-09-03T11:38:25;4.60;;;1.45;;
30617;SDS011;17384;51.214;9.202;2022-09-03T11:43:40;4.00;;;1.35;;
30617;SDS011;17384;51.214;9.202;2022-09-03T11:46:13;4.32;;;1.27;;
30617;SDS011;17384;51.214;9.202;2022-09-03T11:48:54;3.33;;;1.20;;
30617;SDS011;17384;51.214;9.202;2022-09-03T11:56:29;4.65;;;1.30;;
30617;SDS011;17384;51.214;9.202;2022-09-03T11:58:59;6.15;;;1.40;;
30617;SDS011;17384;51.214;9.202;2022-09-03T12:01:25;7.47;;;1.27;;
30617;SDS011;17384;51.214;9.202;2022-09-03T12:03:52;2.80;;;1.17;;
30617;SDS011;17384;51.214;9.202;2022-09-03T12:06:41;2.33;;;1.23;;
30617;SDS011;17384;51.214;9.202;2022-09-03T12:16:56;3.60;;;1.50;;
30617;SDS011;17384;51.214;9.202;2022-09-03T12:19:37;2.28;;;1.50;;
30617;SDS011;17384;51.214;9.202;2022-09-03T12:22:03;2.55;;;1.27;;
30617;SDS011;17384;51.214;9.202;2022-09-03T12:24:29;2.72;;;1.40;;
30617;SDS011;17384;51.214;9.202;2022-09-03T12:26:59;2.20;;;1.30;;
30617;SDS011;17384;51.214;9.202;2022-09-03T12:29:26;10.07;;;1.35;;
30617;SDS011;17384;51.214;9.202;2022-09-03T12:31:52;3.53;;;1.70;;
30617;SDS011;17384;51.214;9.202;2022-09-03T12:34:20;2.22;;;1.10;;
30617;SDS011;17384;51.214;9.202;2022-09-03T12:36:51;2.78;;;1.20;;
30617;SDS011;17384;51.214;9.202;2022-09-03T12:39:24;3.35;;;1.33;;
30617;SDS011;17384;51.214;9.202;2022-09-03T12:41:54;3.30;;;1.45;;
30617;SDS011;17384;51.214;9.202;2022-09-03T12:44:26;2.25;;;1.10;;
30617;SDS011;17384;51.214;9.202;2022-09-03T12:47:06;7.00;;;2.05;;
30617;SDS011;17384;51.214;9.202;2022-09-03T12:49:38;2.08;;;1.10;;
30617;SDS011;17384;51.214;9.202;2022-09-03T12:52:06;4.00;;;1.60;;
30617;SDS011;17384;51.214;9.202;2022-09-03T12:54:36;1.45;;;1.33;;
30617;SDS011;17384;51.214;9.202;2022-09-03T12:57:02;3.38;;;1.23;;
30617;SDS011;17384;51.214;9.202;2022-09-03T12:59:28;9.65;;;1.60;;
30617;SDS011;17384;51.214;9.202;2022-09-03T13:01:56;1.90;;;1.20;;
30617;SDS011;17384;51.214;9.202;2022-09-03T13:04:26;2.28;;;1.30;;
30617;SDS011;17384;51.214;9.202;2022-09-03T13:06:55;2.42;;;1.20;;
30617;SDS011;17384;51.214;9.202;2022-09-03T13:09:21;1.67;;;1.38;;
30617;SDS011;17384;51.214;9.202;2022-09-03T13:11:47;2.63;;;1.42;;
30617;SDS011;17384;51.214;9.202;2022-09-03T13:14:15;1.83;;;1.00;;
30617;SDS011;17384;51.214;9.202;2022-09-03T13:31:44;4.38;;;1.20;;
30617;SDS011;17384;51.214;9.202;2022-09-03T13:34:14;4.43;;;1.52;;
30617;SDS011;17384;51.214;9.202;2022-09-03T13:36:43;2.25;;;1.42;;
30617;SDS011;17384;51.214;9.202;2022-09-03T13:39:17;4.53;;;1.60;;
30617;SDS011;17384;51.214;9.202;2022-09-03T13:41:45;4.90;;;1.80;;
30617;SDS011;17384;51.214;9.202;2022-09-03T13:44:15;4.95;;;1.20;;
30617;SDS011;17384;51.214;9.202;2022-09-03T13:47:01;7.47;;;1.80;;
30617;SDS011;17384;51.214;9.202;2022-09-03T13:55:19;5.40;;;1.38;;
30617;SDS011;17384;51.214;9.202;2022-09-03T13:57:53;5.97;;;1.25;;
30617;SDS011;17384;51.214;9.202;2022-09-03T14:00:22;2.20;;;1.25;;
30617;SDS011;17384;51.214;9.202;2022-09-03T14:02:50;2.15;;;1.15;;
30617;SDS011;17384;51.214;9.202;2022-09-03T14:15:54;9.50;;;1.55;;
30617;SDS011;17384;51.214;9.202;2022-09-03T14:20:57;3.17;;;1.38;;
30617;SDS011;17384;51.214;9.202;2022-09-03T14:25:55;5.03;;;1.30;;
30617;SDS011;17384;51.214;9.202;2022-09-03T14:28:32;5.72;;;1.23;;
30617;SDS011;17384;51.214;9.202;2022-09-03T14:33:42;3.83;;;1.50;;
30617;SDS011;17384;51.214;9.202;2022-09-03T14:36:30;1.63;;;1.05;;
30617;SDS011;17384;51.214;9.202;2022-09-03T14:39:07;2.80;;;1.30;;
30617;SDS011;17384;51.214;9.202;2022-09-03T14:41:47;5.45;;;1.60;;
30617;SDS011;17384;51.214;9.202;2022-09-03T14:49:32;3.90;;;1.38;;
30617;SDS011;17384;51.214;9.202;2022-09-03T14:52:07;9.73;;;1.70;;
30617;SDS011;17384;51.214;9.202;2022-09-03T15:07:49;2.53;;;1.50;;
30617;SDS011;17384;51.214;9.202;2022-09-03T15:10:21;1.92;;;1.30;;
30617;SDS011;17384;51.214;9.202;2022-09-03T15:12:51;4.55;;;1.70;;
30617;SDS011;17384;51.214;9.202;2022-09-03T15:15:21;1.95;;;1.25;;
30617;SDS011;17384;51.214;9.202;2022-09-03T15:20:35;1.90;;;1.27;;
30617;SDS011;17384;51.214;9.202;2022-09-03T15:23:15;4.32;;;1.25;;
30617;SDS011;17384;51.214;9.202;2022-09-03T15:28:27;1.38;;;1.20;;
30617;SDS011;17384;51.214;9.202;2022-09-03T15:33:31;3.47;;;1.30;;
30617;SDS011;17384;51.214;9.202;2022-09-03T15:36:02;3.75;;;1.30;;
30617;SDS011;17384;51.214;9.202;2022-09-03T15:40:56;4.95;;;1.70;;
30617;SDS011;17384;51.214;9.202;2022-09-03T15:43:28;9.82;;;1.30;;
30617;SDS011;17384;51.214;9.202;2022-09-03T15:45:55;2.63;;;1.35;;
30617;SDS011;17384;51.214;9.202;2022-09-03T15:48:25;5.47;;;1.23;;
30617;SDS011;17384;51.214;9.202;2022-09-03T15:53:44;3.97;;;1.67;;
30617;SDS011;17384;51.214;9.202;2022-09-03T15:58:50;1.80;;;1.58;;
30617;SDS011;17384;51.214;9.202;2022-09-03T16:01:22;2.83;;;1.65;;
30617;SDS011;17384;51.214;9.202;2022-09-03T16:04:02;1.75;;;1.30;;
30617;SDS011;17384;51.214;9.202;2022-09-03T16:09:17;3.13;;;1.42;;
30617;SDS011;17384;51.214;9.202;2022-09-03T16:11:48;5.93;;;1.65;;
30617;SDS011;17384;51.214;9.202;2022-09-03T16:14:25;1.65;;;1.15;;
30617;SDS011;17384;51.214;9.202;2022-09-03T16:16:59;3.40;;;1.48;;
30617;SDS011;17384;51.214;9.202;2022-09-03T16:19:27;1.92;;;1.52;;
30617;SDS011;17384;51.214;9.202;2022-09-03T16:21:58;4.90;;;1.30;;
30617;SDS011;17384;51.214;9.202;2022-09-03T16:27:10;4.70;;;1.50;;
30617;SDS011;17384;51.214;9.202;2022-09-03T16:29:39;2.75;;;1.10;;
30617;SDS011;17384;51.214;9.202;2022-09-03T16:32:14;4.28;;;1.48;;
30617;SDS011;17384;51.214;9.202;2022-09-03T16:42:26;4.20;;;1.60;;
30617;SDS011;17384;51.214;9.202;2022-09-03T16:50:24;4.07;;;1.58;;
30617;SDS011;17384;51.214;9.202;2022-09-03T16:53:03;3.33;;;1.20;;
30617;SDS011;17384;51.214;9.202;2022-09-03T17:00:25;3.63;;;1.48;;
30617;SDS011;17384;51.214;9.202;2022-09-03T17:10:22;4.75;;;1.10;;
30617;SDS011;17384;51.214;9.202;2022-09-03T17:17:49;2.80;;;1.30;;
30617;SDS011;17384;51.214;9.202;2022-09-03T17:20:27;2.20;;;1.35;;
30617;SDS011;17384;51.214;9.202;2022-09-03T17:26:00;8.15;;;1.25;;
30617;SDS011;17384;51.214;9.202;2022-09-03T17:31:16;2.80;;;1.60;;
30617;SDS011;17384;51.214;9.202;2022-09-03T17:36:24;3.70;;;1.20;;
30617;SDS011;17384;51.214;9.202;2022-09-03T17:42:01;1.92;;;1.33;;
30617;SDS011;17384;51.214;9.202;2022-09-03T17:49:50;4.43;;;1.30;;
30617;SDS011;17384;51.214;9.202;2022-09-03T17:52:30;4.63;;;1.63;;
30617;SDS011;17384;51.214;9.202;2022-09-03T17:55:01;3.38;;;1.48;;
30617;SDS011;17384;51.214;9.202;2022-09-03T17:57:39;2.10;;;1.30;;
30617;SDS011;17384;51.214;9.202;2022-09-03T18:00:08;10.60;;;1.65;;
30617;SDS011;17384;51.214;9.202;2022-09-03T18:07:29;1.83;;;1.08;;
30617;SDS011;17384;51.214;9.202;2022-09-03T18:15:25;2.55;;;1.55;;
30617;SDS011;17384;51.214;9.202;2022-09-03T18:18:00;3.72;;;1.70;;
30617;SDS011;17384;51.214;9.202;2022-09-03T18:20:27;5.50;;;1.67;;
30617;SDS011;17384;51.214;9.202;2022-09-03T18:26:06;8.38;;;1.75;;
30617;SDS011;17384;51.214;9.202;2022-09-03T18:28:53;2.53;;;1.90;;
30617;SDS011;17384;51.214;9.202;2022-09-03T18:31:40;4.93;;;1.88;;
30617;SDS011;17384;51.214;9.202;2022-09-03T18:34:34;3.80;;;1.50;;
30617;SDS011;17384;51.214;9.202;2022-09-03T18:37:22;6.55;;;1.75;;
30617;SDS011;17384;51.214;9.202;2022-09-03T18:40:07;6.80;;;1.85;;
30617;SDS011;17384;51.214;9.202;2022-09-03T18:42:56;2.75;;;1.60;;
30617;SDS011;17384;51.214;9.202;2022-09-03T18:45:45;3.63;;;1.55;;
30617;SDS011;17384;51.214;9.202;2022-09-03T18:48:40;2.85;;;1.70;;
30617;SDS011;17384;51.214;9.202;2022-09-03T18:51:37;1.95;;;1.52;;
30617;SDS011;17384;51.214;9.202;2022-09-03T18:57:19;7.50;;;1.98;;
30617;SDS011;17384;51.214;9.202;2022-09-03T19:00:05;3.85;;;1.50;;
30617;SDS011;17384;51.214;9.202;2022-09-03T19:08:38;6.30;;;1.80;;
30617;SDS011;17384;51.214;9.202;2022-09-03T19:14:54;2.35;;;1.77;;
30617;SDS011;17384;51.214;9.202;2022-09-03T19:20:27;3.72;;;1.95;;
30617;SDS011;17384;51.214;9.202;2022-09-03T19:23:12;4.45;;;2.55;;
30617;SDS011;17384;51.214;9.202;2022-09-03T19:25:57;2.00;;;1.33;;